createdAt,value
2022-12-16T00:01:26.240Z,35.05
2022-12-16T00:03:56.675Z,35.42
2022-12-16T00:06:26.008Z,40.97
2022-12-16T00:08:53.782Z,35.90
2022-12-16T00:11:22.720Z,32.20
2022-12-16T00:13:50.734Z,31.75
2022-12-16T00:16:20.530Z,40.63
2022-12-16T00:18:48.180Z,29.38
2022-12-16T00:21:18.571Z,35.20
2022-12-16T00:23:46.505Z,31.65
2022-12-16T00:26:14.282Z,31.45
2022-12-16T00:28:43.840Z,40.42
2022-12-16T00:31:12.334Z,38.53
2022-12-16T00:33:41.035Z,39.85
2022-12-16T00:36:09.269Z,31.65
2022-12-16T00:38:36.763Z,35.58
2022-12-16T00:41:04.415Z,41.70
2022-12-16T00:43:32.571Z,37.05
2022-12-16T00:46:00.686Z,33.20
2022-12-16T00:48:28.210Z,37.13
2022-12-16T00:50:55.907Z,37.10
2022-12-16T00:53:25.136Z,34.45
2022-12-16T00:56:01.294Z,37.65
2022-12-16T00:58:28.785Z,35.92
2022-12-16T01:00:56.287Z,39.33
2022-12-16T01:03:23.902Z,34.90
2022-12-16T01:05:51.550Z,29.67
2022-12-16T01:08:20.070Z,26.83
2022-12-16T01:10:55.785Z,31.90
2022-12-16T01:13:24.952Z,28.40
2022-12-16T01:15:52.677Z,38.20
2022-12-16T01:18:20.253Z,38.22
2022-12-16T01:20:47.795Z,35.97
2022-12-16T01:23:15.295Z,35.08
2022-12-16T01:25:42.878Z,36.83
2022-12-16T01:28:10.695Z,36.45
2022-12-16T01:33:05.545Z,29.92
2022-12-16T01:40:47.906Z,32.95
2022-12-16T01:43:16.890Z,36.22
2022-12-16T01:45:44.639Z,31.60
2022-12-16T01:48:45.973Z,32.22
2022-12-16T01:51:21.420Z,33.05
2022-12-16T01:56:40.473Z,23.70
2022-12-16T01:59:09.094Z,36.25
2022-12-16T02:01:37.163Z,35.65
2022-12-16T02:04:05.330Z,32.65
2022-12-16T02:06:33.152Z,32.95
2022-12-16T02:14:54.042Z,32.20
2022-12-16T02:17:32.258Z,31.92
2022-12-16T02:20:30.868Z,29.40
2022-12-16T02:23:16.895Z,34.53
2022-12-16T02:26:02.412Z,33.72
2022-12-16T02:31:53.701Z,31.40
2022-12-16T02:34:29.590Z,35.40
2022-12-16T02:37:10.246Z,33.63
2022-12-16T02:39:42.551Z,34.80
2022-12-16T02:42:35.301Z,38.40
2022-12-16T02:48:00.098Z,30.08
2022-12-16T02:50:36.396Z,30.60
2022-12-16T02:53:05.242Z,30.00
2022-12-16T02:55:59.912Z,33.08
2022-12-16T02:58:33.222Z,27.67
2022-12-16T03:04:15.293Z,31.20
2022-12-16T03:06:47.371Z,36.53
2022-12-16T03:09:20.038Z,37.20
2022-12-16T03:11:49.316Z,29.85
2022-12-16T03:14:20.472Z,28.77
2022-12-16T03:16:49.468Z,27.60
2022-12-16T03:19:20.309Z,31.67
2022-12-16T03:22:18.730Z,32.28
2022-12-16T03:24:46.626Z,26.08
2022-12-16T03:30:09.144Z,29.98
2022-12-16T03:32:39.241Z,28.42
2022-12-16T03:38:12.345Z,25.02
2022-12-16T03:40:42.555Z,27.73
2022-12-16T03:43:14.845Z,32.33
2022-12-16T03:45:45.990Z,35.50
2022-12-16T03:48:14.733Z,31.17
2022-12-16T03:53:28.131Z,36.45
2022-12-16T03:55:56.150Z,43.05
2022-12-16T03:58:23.736Z,36.67
2022-12-16T04:00:51.392Z,30.85
2022-12-16T04:03:22.719Z,35.08
2022-12-16T04:05:50.273Z,33.15
2022-12-16T04:08:17.848Z,34.13
2022-12-16T04:11:03.825Z,34.63
2022-12-16T04:13:49.688Z,34.63
2022-12-16T04:16:36.347Z,39.90
2022-12-16T04:19:22.836Z,28.40
2022-12-16T04:22:09.258Z,27.40
2022-12-16T04:27:24.540Z,32.15
2022-12-16T04:30:10.530Z,29.25
2022-12-16T04:32:56.506Z,39.35
2022-12-16T04:35:45.520Z,38.15
2022-12-16T04:38:33.921Z,31.92
2022-12-16T04:44:24.970Z,42.30
2022-12-16T04:47:11.075Z,38.65
2022-12-16T04:49:57.145Z,29.95
2022-12-16T04:52:43.876Z,39.28
2022-12-16T04:55:29.885Z,44.35
2022-12-16T05:01:21.548Z,38.47
2022-12-16T05:04:07.555Z,41.25
2022-12-16T05:06:53.678Z,39.92
2022-12-16T05:09:39.730Z,33.30
2022-12-16T05:12:25.595Z,33.08
2022-12-16T05:15:11.810Z,30.55
2022-12-16T05:17:57.910Z,32.30
2022-12-16T05:20:43.958Z,34.80
2022-12-16T05:23:30.630Z,36.53
2022-12-16T05:26:16.742Z,41.67
2022-12-16T05:29:02.732Z,42.83
2022-12-16T05:34:52.810Z,32.47
2022-12-16T05:37:38.690Z,33.92
2022-12-16T05:40:25.212Z,36.38
2022-12-16T05:43:16.514Z,36.10
2022-12-16T05:46:03.018Z,28.88
2022-12-16T05:48:49.002Z,37.33
2022-12-16T05:51:34.959Z,40.05
2022-12-16T05:54:21.068Z,39.70
2022-12-16T05:57:06.939Z,34.95
2022-12-16T05:59:52.914Z,41.22
2022-12-16T06:02:39.007Z,32.13
2022-12-16T06:05:37.980Z,35.58
2022-12-16T06:08:27.234Z,35.58
2022-12-16T06:11:13.053Z,30.33
2022-12-16T06:13:59.025Z,35.97
2022-12-16T06:16:44.978Z,28.48
2022-12-16T06:19:32.923Z,35.33
2022-12-16T06:22:18.816Z,32.70
2022-12-16T06:25:04.544Z,35.53
2022-12-16T06:27:50.705Z,41.55
2022-12-16T06:30:36.615Z,41.58
2022-12-16T06:33:25.614Z,31.80
2022-12-16T06:36:11.380Z,33.53
2022-12-16T06:38:57.580Z,33.38
2022-12-16T06:41:43.762Z,30.30
2022-12-16T06:44:30.183Z,32.17
2022-12-16T06:47:16.182Z,33.15
2022-12-16T06:50:02.109Z,37.25
2022-12-16T06:52:48.020Z,40.17
2022-12-16T06:55:34.086Z,34.97
2022-12-16T06:58:20.029Z,35.08
2022-12-16T07:01:06.519Z,32.58
2022-12-16T07:03:52.614Z,28.27
2022-12-16T07:06:38.665Z,32.83
2022-12-16T07:09:25.240Z,43.63
2022-12-16T07:12:11.149Z,38.65
2022-12-16T07:14:57.239Z,31.70
2022-12-16T07:17:43.242Z,34.60
2022-12-16T07:20:29.703Z,30.65
2022-12-16T07:23:19.646Z,37.67
2022-12-16T07:26:05.885Z,35.85
2022-12-16T07:28:52.084Z,37.53
2022-12-16T07:31:38.068Z,35.88
2022-12-16T07:34:24.872Z,40.88
2022-12-16T07:37:11.404Z,36.80
2022-12-16T07:39:57.159Z,39.83
2022-12-16T07:42:43.212Z,35.17
2022-12-16T07:45:29.735Z,38.63
2022-12-16T07:48:15.934Z,45.10
2022-12-16T07:51:01.971Z,42.92
2022-12-16T07:53:48.712Z,39.63
2022-12-16T07:56:37.376Z,42.45
2022-12-16T07:59:27.241Z,43.78
2022-12-16T08:02:18.229Z,47.53
2022-12-16T08:05:04.701Z,36.25
2022-12-16T08:07:51.298Z,40.15
2022-12-16T08:10:57.684Z,155.80
2022-12-16T08:13:43.673Z,40.35
2022-12-16T08:16:30.070Z,38.47
2022-12-16T08:19:16.190Z,48.50
2022-12-16T08:22:13.167Z,49.85
2022-12-16T08:24:59.576Z,47.08
2022-12-16T08:27:45.515Z,44.85
2022-12-16T08:30:31.510Z,39.00
2022-12-16T08:33:19.607Z,44.20
2022-12-16T08:36:06.493Z,42.55
2022-12-16T08:38:54.534Z,33.83
2022-12-16T08:41:44.231Z,38.92
2022-12-16T08:44:30.608Z,43.53
2022-12-16T08:47:19.082Z,45.30
2022-12-16T08:50:04.905Z,43.17
2022-12-16T08:52:50.782Z,46.13
2022-12-16T08:55:36.836Z,50.45
2022-12-16T08:58:22.856Z,43.92
2022-12-16T09:01:08.970Z,44.50
2022-12-16T09:03:57.698Z,55.75
2022-12-16T09:06:53.356Z,51.67
2022-12-16T09:09:39.328Z,52.50
2022-12-16T09:12:25.277Z,55.83
2022-12-16T09:15:11.316Z,53.13
2022-12-16T09:18:02.226Z,54.03
2022-12-16T09:20:48.115Z,55.17
2022-12-16T09:23:34.578Z,57.80
2022-12-16T09:26:22.853Z,58.85
2022-12-16T09:29:09.068Z,57.22
2022-12-16T09:31:55.067Z,58.92
2022-12-16T09:34:44.640Z,65.13
2022-12-16T09:37:34.028Z,63.70
2022-12-16T09:40:20.223Z,69.43
2022-12-16T09:43:12.836Z,73.00
2022-12-16T09:45:59.645Z,65.25
2022-12-16T09:48:54.959Z,59.08
2022-12-16T09:51:50.501Z,74.38
2022-12-16T09:54:45.350Z,77.07
2022-12-16T09:57:33.312Z,72.88
2022-12-16T10:00:36.310Z,70.28
2022-12-16T10:03:40.124Z,79.32
2022-12-16T10:06:51.108Z,82.53
2022-12-16T10:09:48.326Z,87.90
2022-12-16T10:12:51.262Z,82.15
2022-12-16T10:16:15.752Z,83.55
2022-12-16T10:19:56.882Z,86.97
2022-12-16T10:23:16.291Z,98.85
2022-12-16T10:26:05.039Z,99.18
2022-12-16T10:29:05.580Z,89.00
2022-12-16T10:31:56.192Z,85.65
2022-12-16T10:34:50.739Z,87.93
2022-12-16T10:37:57.887Z,94.60
2022-12-16T10:40:47.866Z,112.35
2022-12-16T10:43:47.466Z,109.30
2022-12-16T10:46:39.364Z,103.05
2022-12-16T10:49:32.762Z,117.63
2022-12-16T10:52:19.074Z,124.47
2022-12-16T10:55:16.050Z,141.80
2022-12-16T10:58:34.270Z,144.52
2022-12-16T11:01:46.484Z,144.27
2022-12-16T11:05:15.814Z,152.05
2022-12-16T11:08:04.732Z,146.70
2022-12-16T11:10:57.033Z,140.68
2022-12-16T11:13:50.238Z,139.80
2022-12-16T11:16:40.354Z,147.25
2022-12-16T11:19:47.982Z,145.18
2022-12-16T11:22:37.082Z,171.93
2022-12-16T11:25:24.846Z,146.93
2022-12-16T11:28:29.956Z,150.70
2022-12-16T11:31:24.767Z,156.27
2022-12-16T11:34:12.756Z,154.85
2022-12-16T11:37:00.334Z,154.30
2022-12-16T11:39:48.683Z,140.63
2022-12-16T11:42:55.557Z,147.85
2022-12-16T11:45:42.610Z,141.05
2022-12-16T11:48:59.226Z,143.27
2022-12-16T11:51:49.219Z,131.60
2022-12-16T11:54:53.231Z,136.93
2022-12-16T11:58:03.874Z,127.85
2022-12-16T12:00:52.456Z,120.80
2022-12-16T12:03:47.582Z,114.68
2022-12-16T12:06:48.497Z,118.43
2022-12-16T12:09:40.309Z,133.15
2022-12-16T12:12:38.024Z,132.23
2022-12-16T12:16:02.908Z,133.85
2022-12-16T12:18:52.821Z,136.15
2022-12-16T12:21:46.325Z,136.98
2022-12-16T12:25:11.673Z,139.77
2022-12-16T12:28:22.837Z,134.07
2022-12-16T12:31:56.551Z,131.68
2022-12-16T12:34:58.261Z,138.18
2022-12-16T12:37:58.576Z,125.55
2022-12-16T12:41:23.248Z,129.45
2022-12-16T12:44:36.690Z,130.77
2022-12-16T12:47:41.580Z,135.45
2022-12-16T12:51:03.132Z,128.77
2022-12-16T12:54:09.770Z,126.18
2022-12-16T12:57:07.962Z,124.28
2022-12-16T13:00:28.006Z,134.75
2022-12-16T13:03:35.208Z,128.40
2022-12-16T13:06:27.301Z,116.85
2022-12-16T13:09:17.831Z,121.38
2022-12-16T13:12:25.836Z,115.22
2022-12-16T13:15:15.273Z,117.65
2022-12-16T13:18:24.507Z,121.00
2022-12-16T13:21:15.919Z,131.35
2022-12-16T13:24:03.612Z,118.25
2022-12-16T13:26:53.822Z,127.65
2022-12-16T13:29:43.909Z,118.23
2022-12-16T13:32:42.728Z,115.53
2022-12-16T13:35:28.647Z,116.35
2022-12-16T13:38:16.151Z,116.45
2022-12-16T13:41:19.462Z,117.57
2022-12-16T13:44:14.003Z,116.95
2022-12-16T13:47:08.042Z,112.18
2022-12-16T13:50:13.229Z,107.70
2022-12-16T13:53:00.686Z,116.35
2022-12-16T13:56:18.749Z,118.00
2022-12-16T13:59:34.151Z,112.20
2022-12-16T14:02:39.797Z,106.75
2022-12-16T14:06:12.065Z,105.95
2022-12-16T14:08:58.627Z,105.43
2022-12-16T14:12:19.603Z,101.97
2022-12-16T14:15:21.575Z,105.65
2022-12-16T14:19:04.631Z,98.85
2022-12-16T14:22:03.879Z,98.25
2022-12-16T14:25:42.209Z,98.85
2022-12-16T14:29:08.432Z,93.28
2022-12-16T14:32:05.728Z,90.53
2022-12-16T14:34:55.862Z,100.10
2022-12-16T14:38:20.441Z,113.70
2022-12-16T14:41:21.814Z,95.70
2022-12-16T14:44:33.351Z,102.72
2022-12-16T14:47:39.315Z,94.35
2022-12-16T14:50:53.417Z,95.47
2022-12-16T14:54:00.718Z,94.05
2022-12-16T14:56:55.657Z,90.43
2022-12-16T14:59:44.453Z,100.63
2022-12-16T15:03:01.545Z,102.72
2022-12-16T15:08:44.356Z,100.45
2022-12-16T15:11:33.276Z,104.65
2022-12-16T15:14:23.256Z,103.43
2022-12-16T15:20:11.612Z,108.15
2022-12-16T15:23:06.383Z,118.43
2022-12-16T15:25:52.586Z,109.70
2022-12-16T15:28:55.175Z,99.22
2022-12-16T15:31:50.976Z,102.50
2022-12-16T15:35:04.794Z,97.25
2022-12-16T15:38:04.186Z,96.50
2022-12-16T15:43:57.448Z,93.28
2022-12-16T15:46:50.436Z,100.45
2022-12-16T15:49:41.490Z,106.63
2022-12-16T15:52:48.470Z,121.70
2022-12-16T15:55:53.571Z,122.47
2022-12-16T15:58:56.189Z,121.40
2022-12-16T16:01:45.281Z,150.57
2022-12-16T16:04:49.568Z,135.15
2022-12-16T16:07:38.791Z,131.23
2022-12-16T16:10:37.331Z,128.50
2022-12-16T16:13:28.136Z,136.52
2022-12-16T16:16:30.994Z,121.50
2022-12-16T16:19:28.383Z,161.00
2022-12-16T16:22:21.983Z,105.82
2022-12-16T16:25:30.273Z,107.35
2022-12-16T16:28:19.654Z,121.10
2022-12-16T16:31:06.009Z,115.00
2022-12-16T16:33:54.236Z,108.68
2022-12-16T16:37:24.166Z,111.75
2022-12-16T16:40:22.643Z,103.40
2022-12-16T16:43:12.771Z,102.25
2022-12-16T16:46:14.193Z,117.65
2022-12-16T16:49:04.034Z,134.45
2022-12-16T16:51:50.769Z,123.70
2022-12-16T16:54:54.830Z,136.02
2022-12-16T16:57:47.477Z,149.55
2022-12-16T17:00:46.815Z,155.68
2022-12-16T17:03:35.836Z,148.82
2022-12-16T17:07:01.335Z,123.35
2022-12-16T17:10:08.956Z,127.35
2022-12-16T17:13:26.030Z,148.05
2022-12-16T17:16:20.455Z,132.75
2022-12-16T17:19:33.980Z,159.32
2022-12-16T17:25:15.249Z,122.07
2022-12-16T17:28:10.858Z,189.27
2022-12-16T17:30:59.745Z,137.38
2022-12-16T17:33:56.669Z,117.70
2022-12-16T17:36:48.405Z,99.75
2022-12-16T17:39:36.738Z,105.50
2022-12-16T17:42:23.061Z,83.60
2022-12-16T17:45:14.118Z,127.15
2022-12-16T17:48:04.567Z,114.18
2022-12-16T17:50:52.691Z,119.45
2022-12-16T17:53:38.811Z,132.35
2022-12-16T17:56:31.265Z,249.38
2022-12-16T17:59:17.231Z,122.45
2022-12-16T18:02:03.887Z,151.65
2022-12-16T18:04:50.481Z,128.93
2022-12-16T18:07:38.366Z,97.85
2022-12-16T18:10:25.131Z,122.15
2022-12-16T18:13:13.351Z,105.95
2022-12-16T18:16:19.306Z,112.63
2022-12-16T18:19:08.701Z,107.18
2022-12-16T18:21:56.622Z,114.15
2022-12-16T18:24:48.221Z,114.25
2022-12-16T18:27:47.169Z,135.98
2022-12-16T18:30:35.995Z,155.30
2022-12-16T18:33:21.993Z,108.97
2022-12-16T18:36:08.603Z,124.60
2022-12-16T18:42:22.009Z,90.32
2022-12-16T18:45:10.685Z,91.70
2022-12-16T18:47:59.534Z,111.90
2022-12-16T18:50:48.609Z,104.15
2022-12-16T18:56:40.331Z,115.85
2022-12-16T18:59:28.878Z,144.70
2022-12-16T19:03:21.252Z,94.63
2022-12-16T19:06:18.580Z,108.20
2022-12-16T19:09:04.654Z,89.35
2022-12-16T19:11:54.602Z,100.22
2022-12-16T19:14:44.535Z,108.53
2022-12-16T19:17:44.250Z,146.35
2022-12-16T19:20:33.440Z,122.75
2022-12-16T19:23:27.630Z,136.27
2022-12-16T19:26:19.833Z,118.57
2022-12-16T19:29:09.728Z,101.70
2022-12-16T19:32:28.452Z,165.15
2022-12-16T19:35:15.041Z,91.68
2022-12-16T19:38:01.205Z,92.55
2022-12-16T19:40:50.746Z,85.32
2022-12-16T19:43:40.611Z,101.25
2022-12-16T19:46:29.821Z,94.18
2022-12-16T19:49:20.271Z,101.25
2022-12-16T19:52:06.315Z,101.82
2022-12-16T19:54:54.797Z,109.55
2022-12-16T19:57:44.670Z,106.38
2022-12-16T20:00:34.066Z,99.45
2022-12-16T20:03:23.228Z,86.93
2022-12-16T20:06:39.369Z,92.25
2022-12-16T20:12:43.285Z,185.10
2022-12-16T20:15:31.996Z,94.28
2022-12-16T20:18:18.015Z,111.53
2022-12-16T20:21:12.321Z,91.68
2022-12-16T20:24:00.716Z,80.00
2022-12-16T20:26:46.778Z,75.15
2022-12-16T20:29:37.481Z,82.40
2022-12-16T20:32:24.006Z,85.47
2022-12-16T20:35:10.241Z,148.55
2022-12-16T20:38:10.877Z,71.22
2022-12-16T20:40:59.233Z,65.03
2022-12-16T20:43:47.661Z,55.83
2022-12-16T20:46:36.480Z,57.22
2022-12-16T20:49:22.552Z,56.15
2022-12-16T20:52:10.539Z,58.65
2022-12-16T20:54:56.605Z,54.85
2022-12-16T20:57:57.467Z,54.63
2022-12-16T21:00:49.090Z,48.58
2022-12-16T21:03:36.078Z,48.42
2022-12-16T21:06:33.876Z,49.25
2022-12-16T21:09:20.177Z,42.13
2022-12-16T21:12:06.428Z,53.50
2022-12-16T21:15:01.068Z,46.38
2022-12-16T21:18:07.749Z,46.33
2022-12-16T21:21:18.257Z,51.50
2022-12-16T21:24:05.479Z,52.10
2022-12-16T21:26:53.848Z,42.17
2022-12-16T21:29:42.420Z,37.88
2022-12-16T21:32:37.257Z,48.42
2022-12-16T21:35:31.924Z,44.38
2022-12-16T21:38:18.589Z,40.28
2022-12-16T21:41:36.311Z,40.60
2022-12-16T21:44:58.570Z,40.63
2022-12-16T21:47:49.709Z,45.85
2022-12-16T21:50:36.164Z,37.75
2022-12-16T21:57:20.484Z,42.20
2022-12-16T22:00:11.211Z,37.00
2022-12-16T22:02:58.430Z,37.60
2022-12-16T22:05:49.178Z,39.95
2022-12-16T22:08:35.106Z,27.83
2022-12-16T22:11:28.580Z,38.15
2022-12-16T22:14:19.494Z,31.95
2022-12-16T22:17:06.045Z,32.75
2022-12-16T22:20:03.445Z,31.27
2022-12-16T22:22:49.539Z,30.00
2022-12-16T22:25:37.986Z,32.92
2022-12-16T22:28:27.153Z,27.38
2022-12-16T22:31:18.149Z,29.02
2022-12-16T22:34:20.876Z,30.05
2022-12-16T22:37:12.023Z,32.75
2022-12-16T22:40:01.986Z,28.65
2022-12-16T22:42:50.885Z,31.33
2022-12-16T22:45:47.026Z,27.77
2022-12-16T22:48:34.675Z,23.42
2022-12-16T22:51:21.284Z,23.15
2022-12-16T22:54:09.845Z,29.10
2022-12-16T22:56:56.551Z,24.02
2022-12-16T22:59:42.677Z,21.67
2022-12-16T23:02:31.378Z,23.30
2022-12-16T23:05:21.079Z,17.55
2022-12-16T23:08:13.103Z,20.85
2022-12-16T23:10:59.650Z,22.77
2022-12-16T23:13:49.701Z,21.65
2022-12-16T23:16:38.931Z,24.48
2022-12-16T23:19:25.651Z,18.95
2022-12-16T23:22:11.710Z,17.95
2022-12-16T23:24:58.060Z,19.77
2022-12-16T23:27:44.341Z,15.02
2022-12-16T23:30:32.742Z,13.90
2022-12-16T23:33:37.726Z,17.83
2022-12-16T23:36:37.305Z,12.52
2022-12-16T23:39:26.272Z,15.18
2022-12-16T23:42:19.554Z,12.55
2022-12-16T23:45:10.305Z,18.30
2022-12-16T23:48:02.444Z,16.77
2022-12-16T23:50:54.645Z,19.80
2022-12-16T23:53:42.288Z,21.45
2022-12-16T23:56:28.392Z,17.17
2022-12-16T23:59:16.941Z,16.85
